sensor_id;sensor_type;location;lat;lon;timestamp;temperature;humidity
22676;DHT22;12521;43.310;21.876;2024-02-16T00:01:27;3.2;96.0
22676;DHT22;12521;43.310;21.876;2024-02-16T00:06:05;3.2;96.0
22676;DHT22;12521;43.310;21.876;2024-02-16T00:10:43;3.2;96.0
22676;DHT22;12521;43.310;21.876;2024-02-16T00:15:19;3.2;96.0
22676;DHT22;12521;43.310;21.876;2024-02-16T00:29:09;2.8;96.0
22676;DHT22;12521;43.310;21.876;2024-02-16T00:33:45;2.8;96.0
22676;DHT22;12521;43.310;21.876;2024-02-16T00:38:22;2.8;96.0
22676;DHT22;12521;43.310;21.876;2024-02-16T00:42:58;2.8;96.0
22676;DHT22;12521;43.310;21.876;2024-02-16T00:47:34;2.8;96.0
22676;DHT22;12521;43.310;21.876;2024-02-16T00:52:10;2.8;96.0
22676;DHT22;12521;43.310;21.876;2024-02-16T00:56:46;2.8;96.0
22676;DHT22;12521;43.310;21.876;2024-02-16T01:29:01;2.3;96.0
22676;DHT22;12521;43.310;21.876;2024-02-16T01:33:38;2.3;96.0
22676;DHT22;12521;43.310;21.876;2024-02-16T01:38:15;2.3;96.0
22676;DHT22;12521;43.310;21.876;2024-02-16T01:42:53;2.3;96.0
22676;DHT22;12521;43.310;21.876;2024-02-16T01:47:30;2.3;96.0
22676;DHT22;12521;43.310;21.876;2024-02-16T01:52:08;2.3;96.0
22676;DHT22;12521;43.310;21.876;2024-02-16T01:56:47;2.3;96.0
22676;DHT22;12521;43.310;21.876;2024-02-16T02:10:36;2.0;96.0
22676;DHT22;12521;43.310;21.876;2024-02-16T02:15:12;2.0;96.0
22676;DHT22;12521;43.310;21.876;2024-02-16T02:19:49;2.0;96.0
22676;DHT22;12521;43.310;21.876;2024-02-16T02:24:25;2.0;96.0
22676;DHT22;12521;43.310;21.876;2024-02-16T02:29:02;2.0;96.0
22676;DHT22;12521;43.310;21.876;2024-02-16T02:33:38;2.0;96.0
22676;DHT22;12521;43.310;21.876;2024-02-16T02:47:26;1.8;96.0
22676;DHT22;12521;43.310;21.876;2024-02-16T02:52:03;1.8;96.0
22676;DHT22;12521;43.310;21.876;2024-02-16T02:56:40;1.8;96.0
22676;DHT22;12521;43.310;21.876;2024-02-16T03:01:16;1.8;96.0
22676;DHT22;12521;43.310;21.876;2024-02-16T03:05:52;1.8;96.0
22676;DHT22;12521;43.310;21.876;2024-02-16T03:10:29;1.8;96.0
22676;DHT22;12521;43.310;21.876;2024-02-16T03:15:09;1.8;96.0
22676;DHT22;12521;43.310;21.876;2024-02-16T03:19:45;1.7;96.0
22676;DHT22;12521;43.310;21.876;2024-02-16T03:24:21;1.7;96.0
22676;DHT22;12521;43.310;21.876;2024-02-16T03:28:58;1.6;96.0
22676;DHT22;12521;43.310;21.876;2024-02-16T03:33:34;1.6;96.0
22676;DHT22;12521;43.310;21.876;2024-02-16T03:38:11;1.5;96.0
22676;DHT22;12521;43.310;21.876;2024-02-16T03:42:47;1.5;96.0
22676;DHT22;12521;43.310;21.876;2024-02-16T03:47:23;1.5;96.0
22676;DHT22;12521;43.310;21.876;2024-02-16T03:52:00;1.5;96.0
22676;DHT22;12521;43.310;21.876;2024-02-16T03:56:36;1.5;96.0
22676;DHT22;12521;43.310;21.876;2024-02-16T04:28:56;1.2;96.0
22676;DHT22;12521;43.310;21.876;2024-02-16T04:33:32;1.2;96.0
22676;DHT22;12521;43.310;21.876;2024-02-16T04:38:09;1.2;96.0
22676;DHT22;12521;43.310;21.876;2024-02-16T04:42:45;1.2;96.0
22676;DHT22;12521;43.310;21.876;2024-02-16T04:47:22;1.1;96.0
22676;DHT22;12521;43.310;21.876;2024-02-16T04:51:58;1.1;96.0
22676;DHT22;12521;43.310;21.876;2024-02-16T04:56:34;1.1;96.0
22676;DHT22;12521;43.310;21.876;2024-02-16T05:01:12;1.0;96.0
22676;DHT22;12521;43.310;21.876;2024-02-16T05:05:49;1.0;96.0
22676;DHT22;12521;43.310;21.876;2024-02-16T05:10:25;1.0;96.0
22676;DHT22;12521;43.310;21.876;2024-02-16T05:15:01;1.0;96.0
22676;DHT22;12521;43.310;21.876;2024-02-16T05:19:37;1.0;96.0
22676;DHT22;12521;43.310;21.876;2024-02-16T05:24:13;1.0;96.0
22676;DHT22;12521;43.310;21.876;2024-02-16T05:28:50;1.0;96.0
22676;DHT22;12521;43.310;21.876;2024-02-16T05:33:26;1.0;96.0
22676;DHT22;12521;43.310;21.876;2024-02-16T06:10:17;1.0;96.0
22676;DHT22;12521;43.310;21.876;2024-02-16T06:14:53;1.0;96.0
22676;DHT22;12521;43.310;21.876;2024-02-16T06:19:29;1.0;96.0
22676;DHT22;12521;43.310;21.876;2024-02-16T06:24:06;1.0;96.0
22676;DHT22;12521;43.310;21.876;2024-02-16T06:28:42;1.0;96.0
22676;DHT22;12521;43.310;21.876;2024-02-16T06:33:18;1.0;96.0
22676;DHT22;12521;43.310;21.876;2024-02-16T06:37:54;1.0;96.0
22676;DHT22;12521;43.310;21.876;2024-02-16T06:42:31;1.0;96.0
22676;DHT22;12521;43.310;21.876;2024-02-16T06:47:07;1.0;96.0
22676;DHT22;12521;43.310;21.876;2024-02-16T06:51:44;1.0;96.0
22676;DHT22;12521;43.310;21.876;2024-02-16T06:56:21;1.0;96.0
22676;DHT22;12521;43.310;21.876;2024-02-16T08:10:09;2.8;96.0
22676;DHT22;12521;43.310;21.876;2024-02-16T08:14:45;2.8;96.0
22676;DHT22;12521;43.310;21.876;2024-02-16T08:19:22;2.8;96.0
22676;DHT22;12521;43.310;21.876;2024-02-16T08:23:58;2.8;96.0
22676;DHT22;12521;43.310;21.876;2024-02-16T08:28:34;2.8;96.0
22676;DHT22;12521;43.310;21.876;2024-02-16T08:33:11;2.8;96.0
22676;DHT22;12521;43.310;21.876;2024-02-16T09:28:30;5.3;96.0
22676;DHT22;12521;43.310;21.876;2024-02-16T09:33:07;5.3;96.0
22676;DHT22;12521;43.310;21.876;2024-02-16T09:37:43;5.3;96.0
22676;DHT22;12521;43.310;21.876;2024-02-16T09:42:24;5.3;96.0
22676;DHT22;12521;43.310;21.876;2024-02-16T09:47:06;5.3;96.0
22676;DHT22;12521;43.310;21.876;2024-02-16T09:51:46;5.6;96.0
22676;DHT22;12521;43.310;21.876;2024-02-16T09:56:23;5.6;96.0
22676;DHT22;12521;43.310;21.876;2024-02-16T10:01:00;5.9;96.0
22676;DHT22;12521;43.310;21.876;2024-02-16T10:05:36;5.9;96.0
22676;DHT22;12521;43.310;21.876;2024-02-16T10:10:25;5.9;96.0
22676;DHT22;12521;43.310;21.876;2024-02-16T10:15:03;5.9;96.0
22676;DHT22;12521;43.310;21.876;2024-02-16T10:28:58;8.1;96.0
22676;DHT22;12521;43.310;21.876;2024-02-16T10:33:35;8.1;96.0
22676;DHT22;12521;43.310;21.876;2024-02-16T10:38:12;8.1;96.0
22676;DHT22;12521;43.310;21.876;2024-02-16T10:42:50;8.1;96.0
22676;DHT22;12521;43.310;21.876;2024-02-16T10:47:28;8.1;96.0
22676;DHT22;12521;43.310;21.876;2024-02-16T10:52:07;8.4;96.0
22676;DHT22;12521;43.310;21.876;2024-02-16T10:56:47;8.4;96.0
22676;DHT22;12521;43.310;21.876;2024-02-16T11:01:24;8.7;96.0
22676;DHT22;12521;43.310;21.876;2024-02-16T11:06:00;8.7;96.0
22676;DHT22;12521;43.310;21.876;2024-02-16T11:10:57;9.0;96.0
22676;DHT22;12521;43.310;21.876;2024-02-16T11:15:37;9.0;96.0
22676;DHT22;12521;43.310;21.876;2024-02-16T11:20:13;9.2;96.0
22676;DHT22;12521;43.310;21.876;2024-02-16T11:24:54;9.2;96.0
22676;DHT22;12521;43.310;21.876;2024-02-16T11:29:35;9.2;96.0
22676;DHT22;12521;43.310;21.876;2024-02-16T11:34:22;9.2;96.0
22676;DHT22;12521;43.310;21.876;2024-02-16T12:11:14;11.0;96.0
22676;DHT22;12521;43.310;21.876;2024-02-16T12:15:52;11.0;96.0
22676;DHT22;12521;43.310;21.876;2024-02-16T12:20:31;11.0;96.0
22676;DHT22;12521;43.310;21.876;2024-02-16T12:25:08;11.0;96.0
22676;DHT22;12521;43.310;21.876;2024-02-16T12:29:45;11.0;96.0
22676;DHT22;12521;43.310;21.876;2024-02-16T12:34:22;11.0;96.0
22676;DHT22;12521;43.310;21.876;2024-02-16T14:11:12;12.7;96.0
22676;DHT22;12521;43.310;21.876;2024-02-16T14:15:49;12.7;96.0
22676;DHT22;12521;43.310;21.876;2024-02-16T14:20:26;12.7;96.0
22676;DHT22;12521;43.310;21.876;2024-02-16T14:25:04;12.7;96.0
22676;DHT22;12521;43.310;21.876;2024-02-16T14:29:41;12.7;96.0
22676;DHT22;12521;43.310;21.876;2024-02-16T14:34:17;12.7;96.0
22676;DHT22;12521;43.310;21.876;2024-02-16T14:48:08;12.2;96.0
22676;DHT22;12521;43.310;21.876;2024-02-16T14:52:45;12.2;96.0
22676;DHT22;12521;43.310;21.876;2024-02-16T14:57:22;12.2;96.0
22676;DHT22;12521;43.310;21.876;2024-02-16T15:01:59;12.2;96.0
22676;DHT22;12521;43.310;21.876;2024-02-16T15:06:35;12.2;96.0
22676;DHT22;12521;43.310;21.876;2024-02-16T15:11:12;12.2;96.0
22676;DHT22;12521;43.310;21.876;2024-02-16T15:15:48;12.2;96.0
22676;DHT22;12521;43.310;21.876;2024-02-16T15:29:39;11.2;96.0
22676;DHT22;12521;43.310;21.876;2024-02-16T15:34:15;11.2;96.0
22676;DHT22;12521;43.310;21.876;2024-02-16T15:38:51;11.2;96.0
22676;DHT22;12521;43.310;21.876;2024-02-16T15:43:27;11.2;96.0
22676;DHT22;12521;43.310;21.876;2024-02-16T15:48:06;11.2;96.0
22676;DHT22;12521;43.310;21.876;2024-02-16T15:52:42;11.2;96.0
22676;DHT22;12521;43.310;21.876;2024-02-16T15:57:18;11.2;96.0
22676;DHT22;12521;43.310;21.876;2024-02-16T16:29:32;9.0;96.0
22676;DHT22;12521;43.310;21.876;2024-02-16T16:34:09;9.0;96.0
22676;DHT22;12521;43.310;21.876;2024-02-16T16:38:45;9.0;96.0
22676;DHT22;12521;43.310;21.876;2024-02-16T16:43:22;9.0;96.0
22676;DHT22;12521;43.310;21.876;2024-02-16T16:47:59;9.0;96.0
22676;DHT22;12521;43.310;21.876;2024-02-16T16:52:35;9.0;96.0
22676;DHT22;12521;43.310;21.876;2024-02-16T16:57:11;9.0;96.0
22676;DHT22;12521;43.310;21.876;2024-02-16T17:11:05;7.8;96.0
22676;DHT22;12521;43.310;21.876;2024-02-16T17:15:42;7.8;96.0
22676;DHT22;12521;43.310;21.876;2024-02-16T17:20:21;7.8;96.0
22676;DHT22;12521;43.310;21.876;2024-02-16T17:24:57;7.8;96.0
22676;DHT22;12521;43.310;21.876;2024-02-16T17:29:33;7.8;96.0
22676;DHT22;12521;43.310;21.876;2024-02-16T17:34:10;7.8;96.0
22676;DHT22;12521;43.310;21.876;2024-02-16T18:11:01;6.9;96.0
22676;DHT22;12521;43.310;21.876;2024-02-16T18:15:37;6.9;96.0
22676;DHT22;12521;43.310;21.876;2024-02-16T18:20:13;6.9;96.0
22676;DHT22;12521;43.310;21.876;2024-02-16T18:24:49;6.9;96.0
22676;DHT22;12521;43.310;21.876;2024-02-16T18:29:26;7.0;96.0
22676;DHT22;12521;43.310;21.876;2024-02-16T18:34:02;7.0;96.0
22676;DHT22;12521;43.310;21.876;2024-02-16T18:38:38;7.0;96.0
22676;DHT22;12521;43.310;21.876;2024-02-16T18:43:14;7.0;96.0
22676;DHT22;12521;43.310;21.876;2024-02-16T18:47:51;7.0;96.0
22676;DHT22;12521;43.310;21.876;2024-02-16T18:52:27;7.0;96.0
22676;DHT22;12521;43.310;21.876;2024-02-16T18:57:04;7.0;96.0
22676;DHT22;12521;43.310;21.876;2024-02-16T19:29:21;6.0;96.0
22676;DHT22;12521;43.310;21.876;2024-02-16T19:33:58;6.0;96.0
22676;DHT22;12521;43.310;21.876;2024-02-16T19:38:34;6.0;96.0
22676;DHT22;12521;43.310;21.876;2024-02-16T19:43:10;6.0;96.0
22676;DHT22;12521;43.310;21.876;2024-02-16T19:47:47;6.0;96.0
22676;DHT22;12521;43.310;21.876;2024-02-16T19:52:23;5.8;96.0
22676;DHT22;12521;43.310;21.876;2024-02-16T19:56:59;5.8;96.0
22676;DHT22;12521;43.310;21.876;2024-02-16T20:01:35;5.7;96.0
22676;DHT22;12521;43.310;21.876;2024-02-16T20:06:12;5.7;96.0
22676;DHT22;12521;43.310;21.876;2024-02-16T20:10:48;5.6;96.0
22676;DHT22;12521;43.310;21.876;2024-02-16T20:15:26;5.6;96.0
22676;DHT22;12521;43.310;21.876;2024-02-16T20:20:05;5.5;96.0
22676;DHT22;12521;43.310;21.876;2024-02-16T20:24:44;5.5;96.0
22676;DHT22;12521;43.310;21.876;2024-02-16T20:29:21;5.5;96.0
22676;DHT22;12521;43.310;21.876;2024-02-16T20:33:57;5.5;96.0
22676;DHT22;12521;43.310;21.876;2024-02-16T21:10:47;5.0;96.0
22676;DHT22;12521;43.310;21.876;2024-02-16T21:15:23;5.0;96.0
22676;DHT22;12521;43.310;21.876;2024-02-16T21:19:59;5.0;96.0
22676;DHT22;12521;43.310;21.876;2024-02-16T21:24:36;5.0;96.0
22676;DHT22;12521;43.310;21.876;2024-02-16T21:29:12;5.0;96.0
22676;DHT22;12521;43.310;21.876;2024-02-16T21:33:48;5.0;96.0
22676;DHT22;12521;43.310;21.876;2024-02-16T21:38:25;5.0;96.0
22676;DHT22;12521;43.310;21.876;2024-02-16T22:29:07;4.5;96.0
22676;DHT22;12521;43.310;21.876;2024-02-16T22:33:43;4.5;96.0
22676;DHT22;12521;43.310;21.876;2024-02-16T22:38:21;4.5;96.0
22676;DHT22;12521;43.310;21.876;2024-02-16T22:42:59;4.5;96.0
22676;DHT22;12521;43.310;21.876;2024-02-16T22:47:35;4.5;96.0
22676;DHT22;12521;43.310;21.876;2024-02-16T22:52:12;4.4;96.0
22676;DHT22;12521;43.310;21.876;2024-02-16T22:56:49;4.4;96.0
22676;DHT22;12521;43.310;21.876;2024-02-16T23:01:26;4.3;96.0
22676;DHT22;12521;43.310;21.876;2024-02-16T23:06:04;4.3;96.0
22676;DHT22;12521;43.310;21.876;2024-02-16T23:10:41;4.2;96.0
22676;DHT22;12521;43.310;21.876;2024-02-16T23:15:20;4.2;96.0
22676;DHT22;12521;43.310;21.876;2024-02-16T23:19:57;4.0;96.0
22676;DHT22;12521;43.310;21.876;2024-02-16T23:24:33;4.0;96.0
22676;DHT22;12521;43.310;21.876;2024-02-16T23:29:09;4.0;96.0
22676;DHT22;12521;43.310;21.876;2024-02-16T23:33:46;4.0;96.0
22676;DHT22;12521;43.310;21.876;2024-02-16T23:38:22;4.0;96.0
